Yachats, OR

7:00 AM PDT on September 05, 2015 (GMT -0700)
Stormwatcher's Retreat | | Change Station
CLOSE
Current Station
Personal Weather Station
Location: Yachats, OR
Elevation: 26 ft
Nearby Weather Stations

Elev 26 ft 44.31 °N, 124.11 °W | Updated 30 seconds ago

Clear
Clear
49.8 °F
Feels Like 50 °F
N
3.0
Wind Variable Wind from SE
Gusts 3.0 mph

Today
High -- | Low -- °F
--% Chance of Precip.
Yesterday
High -- | Low -- °F
Precip. -- in
6:43 AM 7:45 PM
Waning Gibbous, 48% visible
Pressure 30.15 in
Visibility 10.0 miles
Clouds Clear
Windchill 50 °F
Dew Point 47 °F
Humidity 91%
Rainfall 0.00 in
Snow Depth Not available.
UV 0 out of 12
Pollen 2.60 out of 12
Air Quality Not available.
Flu Activity Not available.
METAR KONP 051355Z AUTO 08003KT 10SM CLR 06/06 A3015 RMK AO2
Pressure 30.15 in
Visibility 10.0 miles
Clouds Clear
Windchill 50 °F
Dew Point 47 °F
Humidity 91%
Rainfall 0.00 in
Snow Depth Not available.
UV 0 out of 12
Pollen 2.60 out of 12
Air Quality Not available.
Flu Activity Not available.
METAR KONP 051355Z AUTO 08003KT 10SM CLR 06/06 A3015 RMK AO2

10-Day Weather Forecast

×

Almanac

Astronomy

Sep. 05, 2015 Rise Set
Actual Time
Civil Twilight
Nautical Twilight
Astronomical Twilight
Moon
Length of Visible Light
Length of Day
Tomorrow will be .
, % of the Moon is Illuminated

Today's Extremes

State Highs State Lows

Community

WunderPhotos

Upload Photos

1,852,471 photos uploaded!

WunderBlogs® & News

Nearby

Air Quality

  Air Quality AQ Index Pollutant
Not available.

Snow Depth

Station Depth Elevation

Earthquake Activity

City Distance Mag. Time & Date
Minimum magnitude displayed is 2.5.

Coastal Water Temperatures

Place Temperature

Stations

Nearby Weather Stations

Station Location Temp. Windchill Dew Point Humidity Wind Precip. Elev Updated Type